createdAt,value
2019-05-26T00:00:51.318Z,14.85
2019-05-26T00:03:19.843Z,15.63
2019-05-26T00:05:48.292Z,18.07
2019-05-26T00:08:16.762Z,14.33
2019-05-26T00:10:45.192Z,14.38
2019-05-26T00:13:13.634Z,17.57
2019-05-26T00:15:42.068Z,15.70
2019-05-26T00:18:10.507Z,17.87
2019-05-26T00:20:38.939Z,17.23
2019-05-26T00:23:07.380Z,17.12
2019-05-26T00:25:35.889Z,15.85
2019-05-26T00:28:04.346Z,21.45
2019-05-26T00:30:32.827Z,23.20
2019-05-26T00:33:01.285Z,16.23
2019-05-26T00:35:29.702Z,14.58
2019-05-26T00:37:59.817Z,23.30
2019-05-26T00:40:28.317Z,16.82
2019-05-26T00:43:02.774Z,17.87
2019-05-26T00:47:58.920Z,16.02
2019-05-26T00:50:27.417Z,14.60
2019-05-26T00:52:56.879Z,17.20
2019-05-26T00:55:25.536Z,21.23
2019-05-26T00:57:54.056Z,18.30
2019-05-26T01:00:42.713Z,18.73
2019-05-26T01:03:13.150Z,18.12
2019-05-26T01:05:41.671Z,19.10
2019-05-26T01:08:10.223Z,21.70
2019-05-26T01:10:38.773Z,22.98
2019-05-26T01:13:07.415Z,20.30
2019-05-26T01:15:35.949Z,23.87
2019-05-26T01:18:05.300Z,25.62
2019-05-26T01:20:33.752Z,35.33
2019-05-26T01:23:03.899Z,33.02
2019-05-26T01:25:32.489Z,29.95
2019-05-26T01:28:00.970Z,33.00
2019-05-26T01:30:36.966Z,31.17
2019-05-26T01:33:06.445Z,31.37
2019-05-26T01:35:37.532Z,31.75
2019-05-26T01:38:22.564Z,35.35
2019-05-26T01:40:43.549Z,34.08
2019-05-26T01:43:12.212Z,40.05
2019-05-26T01:45:40.731Z,36.13
2019-05-26T01:48:09.311Z,40.50
2019-05-26T01:50:37.898Z,31.02
2019-05-26T01:53:07.101Z,38.88
2019-05-26T01:55:35.742Z,39.50
2019-05-26T01:58:04.788Z,42.48
2019-05-26T02:00:33.375Z,40.73
2019-05-26T02:03:01.802Z,44.23
2019-05-26T02:05:30.326Z,38.28
2019-05-26T02:07:58.846Z,39.63
2019-05-26T02:10:27.275Z,50.00
2019-05-26T02:12:55.756Z,41.55
2019-05-26T02:15:24.879Z,46.25
2019-05-26T02:17:53.321Z,38.02
2019-05-26T02:20:21.876Z,39.48
2019-05-26T02:22:50.318Z,38.53
2019-05-26T02:25:19.391Z,44.38
2019-05-26T02:27:47.856Z,48.60
2019-05-26T02:30:16.833Z,41.30
2019-05-26T02:32:45.254Z,52.17
2019-05-26T02:35:14.015Z,38.67
2019-05-26T02:37:42.571Z,49.67
2019-05-26T02:40:12.822Z,40.25
2019-05-26T02:42:41.277Z,40.40
2019-05-26T02:45:13.869Z,53.15
2019-05-26T02:47:42.314Z,50.08
2019-05-26T02:50:11.698Z,42.93
2019-05-26T02:52:40.150Z,49.33
2019-05-26T02:55:09.340Z,45.30
2019-05-26T02:57:37.953Z,49.70
2019-05-26T03:00:09.363Z,48.90
2019-05-26T03:02:37.945Z,54.50
2019-05-26T03:05:09.216Z,51.55
2019-05-26T03:07:41.040Z,57.58
2019-05-26T03:10:09.813Z,50.78
2019-05-26T03:12:41.305Z,52.38
2019-05-26T03:15:12.593Z,53.28
2019-05-26T03:17:42.675Z,60.63
2019-05-26T03:20:13.599Z,55.15
2019-05-26T03:22:43.027Z,53.20
2019-05-26T03:25:14.586Z,54.55
2019-05-26T03:27:43.024Z,52.13
2019-05-26T03:30:11.580Z,51.15
2019-05-26T03:32:40.055Z,56.85
2019-05-26T03:35:09.658Z,51.13
2019-05-26T03:37:38.143Z,49.70
2019-05-26T03:40:10.335Z,50.98
2019-05-26T03:42:38.792Z,54.98
2019-05-26T03:45:08.338Z,50.78
2019-05-26T03:47:36.754Z,58.40
2019-05-26T03:50:08.690Z,54.08
2019-05-26T03:52:38.741Z,55.15
2019-05-26T03:55:08.139Z,57.93
2019-05-26T03:57:36.591Z,58.08
2019-05-26T04:00:08.276Z,55.23
2019-05-26T04:02:36.781Z,54.70
2019-05-26T04:05:09.638Z,58.08
2019-05-26T04:07:38.141Z,59.38
2019-05-26T04:10:07.978Z,52.73
2019-05-26T04:12:36.400Z,59.45
2019-05-26T04:15:07.982Z,59.75
2019-05-26T04:17:36.510Z,58.00
2019-05-26T04:20:06.306Z,60.67
2019-05-26T04:22:34.736Z,66.77
2019-05-26T04:25:04.777Z,59.65
2019-05-26T04:27:33.219Z,64.77
2019-05-26T04:30:01.659Z,66.10
2019-05-26T04:32:30.091Z,63.45
2019-05-26T04:34:58.520Z,54.20
2019-05-26T04:37:26.969Z,63.40
2019-05-26T04:39:55.402Z,59.95
2019-05-26T04:42:23.851Z,60.73
2019-05-26T04:44:52.293Z,63.25
2019-05-26T04:47:20.721Z,55.45
2019-05-26T04:49:49.159Z,59.10
2019-05-26T04:52:17.585Z,63.92
2019-05-26T04:54:46.094Z,61.45
2019-05-26T04:57:14.529Z,64.37
2019-05-26T04:59:42.980Z,54.60
2019-05-26T05:02:11.473Z,63.30
2019-05-26T05:04:39.912Z,64.58
2019-05-26T05:07:08.335Z,59.03
2019-05-26T05:09:36.770Z,63.52
2019-05-26T05:12:05.665Z,61.75
2019-05-26T05:14:34.087Z,56.88
2019-05-26T05:17:02.553Z,52.27
2019-05-26T05:19:30.975Z,51.25
2019-05-26T05:22:05.735Z,48.75
2019-05-26T05:24:34.134Z,63.70
2019-05-26T05:27:02.575Z,59.27
2019-05-26T05:29:31.049Z,51.75
2019-05-26T05:31:59.476Z,57.93
2019-05-26T05:34:27.942Z,57.50
2019-05-26T05:36:56.388Z,58.68
2019-05-26T05:39:24.816Z,55.10
2019-05-26T05:41:53.249Z,60.63
2019-05-26T05:44:21.689Z,56.00
2019-05-26T05:46:50.159Z,54.03
2019-05-26T05:49:18.596Z,46.13
2019-05-26T05:51:47.025Z,53.17
2019-05-26T05:54:15.449Z,52.88
2019-05-26T05:56:43.897Z,52.17
2019-05-26T05:59:12.374Z,51.20
2019-05-26T06:01:40.816Z,45.28
2019-05-26T06:04:09.239Z,52.70
2019-05-26T06:06:37.690Z,50.43
2019-05-26T06:09:07.247Z,51.95
2019-05-26T06:11:35.689Z,47.85
2019-05-26T06:14:04.369Z,49.50
2019-05-26T06:16:32.812Z,45.00
2019-05-26T06:19:02.906Z,48.90
2019-05-26T06:21:31.336Z,44.53
2019-05-26T06:23:59.759Z,37.25
2019-05-26T06:26:28.228Z,39.83
2019-05-26T06:28:56.725Z,37.25
2019-05-26T06:31:25.174Z,38.63
2019-05-26T06:33:53.594Z,34.05
2019-05-26T06:36:22.066Z,34.38
2019-05-26T06:38:50.474Z,32.93
2019-05-26T06:41:32.420Z,34.00
2019-05-26T06:43:49.197Z,30.80
2019-05-26T06:46:17.629Z,30.17
2019-05-26T06:48:46.095Z,30.43
2019-05-26T06:51:14.593Z,27.85
2019-05-26T06:53:43.068Z,28.73
2019-05-26T06:56:11.492Z,25.70
2019-05-26T06:58:39.944Z,30.27
2019-05-26T07:01:10.022Z,27.82
2019-05-26T07:03:38.470Z,27.52
2019-05-26T07:06:06.885Z,25.15
2019-05-26T07:08:35.523Z,24.77
2019-05-26T07:11:06.957Z,27.80
2019-05-26T07:13:35.424Z,24.18
2019-05-26T07:16:04.523Z,22.98
2019-05-26T07:18:34.646Z,24.47
2019-05-26T07:21:05.910Z,21.12
2019-05-26T07:23:34.367Z,23.92
2019-05-26T07:26:02.818Z,21.87
2019-05-26T07:28:31.309Z,17.77
2019-05-26T07:30:59.763Z,19.10
2019-05-26T07:33:43.252Z,18.85
2019-05-26T07:36:11.923Z,18.17
2019-05-26T07:38:40.414Z,18.98
2019-05-26T07:41:10.541Z,16.40
2019-05-26T07:43:39.024Z,15.10
2019-05-26T07:46:07.496Z,15.28
2019-05-26T07:48:36.350Z,13.15
2019-05-26T07:51:05.019Z,12.63
2019-05-26T07:53:33.465Z,10.70
2019-05-26T07:56:01.911Z,10.88
2019-05-26T07:58:31.962Z,13.08
2019-05-26T08:01:00.393Z,9.55
2019-05-26T08:03:28.877Z,10.65
2019-05-26T08:05:57.299Z,10.78
2019-05-26T08:08:25.729Z,12.40
2019-05-26T08:10:54.168Z,10.23
2019-05-26T08:13:22.605Z,8.98
2019-05-26T08:15:51.105Z,9.38
2019-05-26T08:18:19.608Z,9.40
2019-05-26T08:20:48.061Z,10.48
2019-05-26T08:23:16.503Z,9.03
2019-05-26T08:25:45.010Z,8.13
2019-05-26T08:28:13.996Z,10.25
2019-05-26T08:30:42.424Z,8.15
2019-05-26T08:33:10.873Z,7.70
2019-05-26T08:35:39.460Z,7.78
2019-05-26T08:38:07.877Z,7.05
2019-05-26T08:40:36.319Z,9.28
2019-05-26T08:43:04.892Z,7.75
2019-05-26T08:45:33.319Z,8.25
2019-05-26T08:48:01.733Z,11.20
2019-05-26T08:50:33.941Z,7.40
2019-05-26T08:53:00.379Z,8.28
2019-05-26T08:55:28.874Z,6.87
2019-05-26T08:57:57.453Z,7.80
2019-05-26T09:00:26.846Z,9.28
2019-05-26T09:02:55.275Z,11.12
2019-05-26T09:05:23.735Z,7.35
2019-05-26T09:07:52.164Z,7.28
2019-05-26T09:10:23.426Z,9.23
2019-05-26T09:13:00.943Z,10.25
2019-05-26T09:15:22.153Z,6.80
2019-05-26T09:17:50.586Z,6.80
2019-05-26T09:20:19.451Z,6.05
2019-05-26T09:22:47.885Z,6.62
2019-05-26T09:25:16.400Z,7.10
2019-05-26T09:27:44.828Z,5.67
2019-05-26T09:30:14.358Z,6.47
2019-05-26T09:32:44.732Z,6.12
2019-05-26T09:35:13.662Z,7.17
2019-05-26T09:37:42.115Z,7.08
2019-05-26T09:40:13.076Z,8.55
2019-05-26T09:42:41.516Z,8.30
2019-05-26T09:45:10.472Z,7.05
2019-05-26T09:47:39.248Z,8.18
2019-05-26T09:50:08.708Z,10.28
2019-05-26T09:52:37.510Z,8.60
2019-05-26T09:55:07.933Z,7.03
2019-05-26T09:57:39.911Z,7.00
2019-05-26T10:00:09.830Z,11.08
2019-05-26T10:02:38.855Z,7.15
2019-05-26T10:05:11.005Z,7.03
2019-05-26T10:07:40.589Z,9.58
2019-05-26T10:10:09.748Z,7.50
2019-05-26T10:12:38.292Z,6.10
2019-05-26T10:15:07.801Z,6.03
2019-05-26T10:17:38.094Z,8.83
2019-05-26T10:20:13.465Z,5.83
2019-05-26T10:22:41.912Z,6.55
2019-05-26T10:25:10.858Z,6.08
2019-05-26T10:27:39.356Z,7.08
2019-05-26T10:30:09.789Z,5.60
2019-05-26T10:32:38.201Z,7.97
2019-05-26T10:35:07.878Z,6.47
2019-05-26T10:37:36.500Z,6.72
2019-05-26T10:40:06.838Z,5.92
2019-05-26T10:42:35.335Z,6.35
2019-05-26T10:45:08.289Z,5.55
2019-05-26T10:47:36.775Z,8.25
2019-05-26T10:50:09.674Z,6.22
2019-05-26T10:52:38.183Z,8.73
2019-05-26T10:55:08.749Z,6.05
2019-05-26T10:57:43.161Z,7.53
2019-05-26T11:02:39.709Z,4.65
2019-05-26T11:05:09.739Z,6.70
2019-05-26T11:07:38.166Z,6.55
2019-05-26T11:10:07.634Z,5.55
2019-05-26T11:12:36.121Z,5.80
2019-05-26T11:15:07.604Z,7.15
2019-05-26T11:17:36.105Z,6.00
2019-05-26T11:20:06.769Z,6.37
2019-05-26T11:22:35.174Z,7.20
2019-05-26T11:25:04.949Z,7.22
2019-05-26T11:27:33.368Z,6.15
2019-05-26T11:30:01.875Z,6.53
2019-05-26T11:32:30.289Z,6.70
2019-05-26T11:35:01.746Z,9.15
2019-05-26T11:37:28.848Z,8.08
2019-05-26T11:39:57.290Z,15.28
2019-05-26T11:42:25.710Z,7.28
2019-05-26T11:44:54.166Z,6.62
2019-05-26T11:47:22.613Z,9.18
2019-05-26T11:49:51.181Z,8.18
2019-05-26T11:52:20.425Z,7.80
2019-05-26T11:54:48.966Z,21.57
2019-05-26T11:57:17.379Z,8.78
2019-05-26T11:59:47.278Z,9.00
2019-05-26T12:02:16.007Z,6.35
2019-05-26T12:04:44.437Z,7.03
2019-05-26T12:07:12.884Z,6.12
2019-05-26T12:09:42.542Z,7.75
2019-05-26T12:12:10.961Z,7.17
2019-05-26T12:14:39.380Z,11.50
2019-05-26T12:17:07.964Z,8.08
2019-05-26T12:19:36.388Z,10.23
2019-05-26T12:22:05.077Z,7.95
2019-05-26T12:24:33.512Z,11.00
2019-05-26T12:27:01.991Z,11.60
2019-05-26T12:29:30.399Z,8.53
2019-05-26T12:31:58.876Z,9.40
2019-05-26T12:34:27.311Z,8.83
2019-05-26T12:36:55.725Z,9.58
2019-05-26T12:39:24.160Z,7.15
2019-05-26T12:41:52.594Z,9.00
2019-05-26T12:44:21.004Z,11.05
2019-05-26T12:46:49.438Z,6.25
2019-05-26T12:49:17.849Z,9.05
2019-05-26T12:51:46.272Z,7.37
2019-05-26T12:54:14.696Z,8.05
2019-05-26T12:56:43.132Z,8.80
2019-05-26T12:59:11.543Z,7.37
2019-05-26T13:01:40.057Z,7.65
2019-05-26T13:04:08.484Z,9.83
2019-05-26T13:06:36.910Z,8.30
2019-05-26T13:09:08.382Z,5.90
2019-05-26T13:11:36.831Z,6.35
2019-05-26T13:14:05.580Z,5.78
2019-05-26T13:16:35.964Z,6.90
2019-05-26T13:19:04.795Z,9.35
2019-05-26T13:21:33.229Z,6.25
2019-05-26T13:24:01.660Z,9.13
2019-05-26T13:26:30.094Z,9.45
2019-05-26T13:28:58.529Z,4.60
2019-05-26T13:31:26.950Z,8.58
2019-05-26T13:33:55.380Z,5.22
2019-05-26T13:36:23.789Z,7.78
2019-05-26T13:38:52.232Z,4.47
2019-05-26T13:41:20.651Z,6.28
2019-05-26T13:43:49.111Z,5.95
2019-05-26T13:46:17.538Z,3.58
2019-05-26T13:48:45.971Z,5.03
2019-05-26T13:51:14.402Z,6.20
2019-05-26T13:53:42.851Z,5.30
2019-05-26T13:56:11.263Z,3.87
2019-05-26T13:58:39.766Z,5.83
2019-05-26T14:01:09.236Z,6.03
2019-05-26T14:03:37.686Z,3.20
2019-05-26T14:06:06.139Z,5.05
2019-05-26T14:08:34.576Z,3.58
2019-05-26T14:11:02.989Z,6.95
2019-05-26T14:13:31.509Z,7.08
2019-05-26T14:16:01.436Z,4.50
2019-05-26T14:18:31.807Z,5.45
2019-05-26T14:21:00.227Z,4.92
2019-05-26T14:23:34.662Z,4.95
2019-05-26T14:28:30.738Z,6.40
2019-05-26T14:30:59.157Z,4.47
2019-05-26T14:33:27.596Z,10.78
2019-05-26T14:35:56.031Z,8.85
2019-05-26T14:38:24.481Z,6.15
2019-05-26T14:40:52.958Z,6.85
2019-05-26T14:43:21.399Z,7.55
2019-05-26T14:45:53.655Z,5.40
2019-05-26T14:48:19.995Z,8.58
2019-05-26T14:50:48.456Z,5.83
2019-05-26T14:53:16.876Z,7.17
2019-05-26T14:55:47.980Z,4.90
2019-05-26T14:58:16.924Z,5.28
2019-05-26T15:00:45.422Z,5.17
2019-05-26T15:03:13.857Z,4.58
2019-05-26T15:05:42.271Z,4.42
2019-05-26T15:08:10.736Z,4.40
2019-05-26T15:10:39.176Z,5.67
2019-05-26T15:13:07.678Z,7.72
2019-05-26T15:15:36.124Z,5.80
2019-05-26T15:18:04.695Z,5.58
2019-05-26T15:20:33.157Z,7.70
2019-05-26T15:23:01.656Z,7.00
2019-05-26T15:25:30.121Z,5.20
2019-05-26T15:27:58.588Z,7.08
2019-05-26T15:30:27.023Z,5.20
2019-05-26T15:32:55.478Z,4.40
2019-05-26T15:35:24.011Z,4.70
2019-05-26T15:37:52.441Z,4.17
2019-05-26T15:40:20.931Z,6.72
2019-05-26T15:42:49.317Z,4.72
2019-05-26T15:45:18.089Z,6.58
2019-05-26T15:47:46.518Z,10.60
2019-05-26T15:50:16.723Z,6.08
2019-05-26T15:52:45.221Z,11.48
2019-05-26T15:55:13.949Z,7.80
2019-05-26T15:57:42.369Z,6.85
2019-05-26T16:00:11.096Z,8.43
2019-05-26T16:02:39.456Z,6.28
2019-05-26T16:05:08.235Z,10.28
2019-05-26T16:07:36.653Z,7.00
2019-05-26T16:10:08.591Z,5.90
2019-05-26T16:12:37.082Z,9.90
2019-05-26T16:15:07.569Z,12.65
2019-05-26T16:17:38.698Z,7.15
2019-05-26T16:20:08.244Z,6.95
2019-05-26T16:22:36.746Z,12.47
2019-05-26T16:25:08.150Z,10.55
2019-05-26T16:27:36.864Z,10.38
2019-05-26T16:30:07.513Z,8.28
2019-05-26T16:32:35.921Z,8.28
2019-05-26T16:35:04.892Z,9.73
2019-05-26T16:37:33.321Z,9.50
2019-05-26T16:40:01.773Z,11.83
2019-05-26T16:42:30.232Z,7.33
2019-05-26T16:44:58.648Z,6.70
2019-05-26T16:47:27.066Z,7.40
2019-05-26T16:49:55.506Z,13.48
2019-05-26T16:52:23.983Z,6.00
2019-05-26T16:54:55.269Z,5.58
2019-05-26T16:57:23.707Z,7.90
2019-05-26T16:59:52.160Z,4.65
2019-05-26T17:02:20.566Z,6.85
2019-05-26T17:04:48.990Z,5.12
2019-05-26T17:07:17.461Z,7.20
2019-05-26T17:09:45.832Z,6.75
2019-05-26T17:12:14.256Z,6.03
2019-05-26T17:14:42.687Z,9.53
2019-05-26T17:17:14.978Z,5.83
2019-05-26T17:19:41.332Z,4.10
2019-05-26T17:22:09.755Z,7.17
2019-05-26T17:24:38.176Z,6.00
2019-05-26T17:27:06.603Z,5.22
2019-05-26T17:29:35.160Z,5.10
2019-05-26T17:32:03.679Z,5.58
2019-05-26T17:34:32.099Z,4.55
2019-05-26T17:37:00.532Z,6.20
2019-05-26T17:39:28.955Z,6.35
2019-05-26T17:41:57.381Z,4.92
2019-05-26T17:44:25.806Z,6.45
2019-05-26T17:46:54.264Z,5.17
2019-05-26T17:49:22.712Z,3.67
2019-05-26T17:51:51.149Z,4.90
2019-05-26T17:54:19.570Z,6.92
2019-05-26T17:56:48.011Z,5.30
2019-05-26T17:59:16.417Z,6.62
2019-05-26T18:01:44.859Z,5.05
2019-05-26T18:04:13.268Z,5.78
2019-05-26T18:06:41.687Z,5.70
2019-05-26T18:09:10.246Z,5.65
2019-05-26T18:11:38.673Z,5.95
2019-05-26T18:14:07.152Z,7.50
2019-05-26T18:16:35.654Z,3.50
2019-05-26T18:19:05.263Z,5.05
2019-05-26T18:21:33.691Z,5.17
2019-05-26T18:24:02.121Z,5.00
2019-05-26T18:26:30.526Z,5.75
2019-05-26T18:28:58.983Z,2.75
2019-05-26T18:31:29.177Z,3.95
2019-05-26T18:33:57.609Z,7.85
2019-05-26T18:36:26.010Z,3.72
2019-05-26T18:38:54.439Z,2.90
2019-05-26T18:41:22.858Z,2.95
2019-05-26T18:43:51.360Z,4.45
2019-05-26T18:46:19.719Z,2.62
2019-05-26T18:48:48.153Z,3.58
2019-05-26T18:51:16.568Z,5.62
2019-05-26T18:53:45.759Z,6.33
2019-05-26T18:56:15.682Z,6.15
2019-05-26T18:58:44.115Z,5.80
2019-05-26T19:01:12.564Z,8.05
2019-05-26T19:03:41.041Z,3.80
2019-05-26T19:06:09.464Z,3.92
2019-05-26T19:08:37.889Z,4.12
2019-05-26T19:11:06.369Z,3.70
2019-05-26T19:13:34.833Z,3.80
2019-05-26T19:16:03.241Z,5.35
2019-05-26T19:18:31.669Z,6.20
2019-05-26T19:21:00.847Z,5.40
2019-05-26T19:23:30.518Z,7.67
2019-05-26T19:26:00.953Z,4.58
2019-05-26T19:28:29.095Z,7.22
2019-05-26T19:30:57.605Z,6.08
2019-05-26T19:33:26.033Z,8.28
2019-05-26T19:35:54.472Z,6.12
2019-05-26T19:38:22.883Z,5.10
2019-05-26T19:40:51.327Z,5.42
2019-05-26T19:43:19.762Z,6.50
2019-05-26T19:45:48.197Z,6.67
2019-05-26T19:48:16.620Z,6.78
2019-05-26T19:50:45.044Z,9.80
2019-05-26T19:53:13.580Z,7.28
2019-05-26T19:55:42.024Z,7.80
2019-05-26T19:58:10.441Z,7.60
2019-05-26T20:00:38.973Z,13.60
2019-05-26T20:03:07.463Z,8.23
2019-05-26T20:05:35.867Z,11.65
2019-05-26T20:08:04.530Z,8.63
2019-05-26T20:10:32.965Z,10.58
2019-05-26T20:13:03.126Z,8.88
2019-05-26T20:15:37.663Z,9.68
2019-05-26T20:20:33.931Z,9.28
2019-05-26T20:23:02.410Z,9.90
2019-05-26T20:25:30.935Z,7.15
2019-05-26T20:27:59.363Z,13.43
2019-05-26T20:30:27.814Z,7.60
2019-05-26T20:32:56.251Z,8.68
2019-05-26T20:35:24.685Z,8.93
2019-05-26T20:37:53.087Z,6.83
2019-05-26T20:40:21.606Z,11.00
2019-05-26T20:42:50.069Z,7.70
2019-05-26T20:45:19.333Z,9.38
2019-05-26T20:47:47.750Z,10.72
2019-05-26T20:50:28.513Z,11.68
2019-05-26T20:52:46.747Z,10.78
2019-05-26T20:55:16.301Z,12.95
2019-05-26T20:57:44.804Z,8.23
2019-05-26T21:00:14.805Z,8.60
2019-05-26T21:02:43.516Z,9.85
2019-05-26T21:05:12.283Z,7.47
2019-05-26T21:07:40.719Z,9.08
2019-05-26T21:10:09.391Z,8.23
2019-05-26T21:12:37.834Z,6.10
2019-05-26T21:15:07.196Z,9.35
2019-05-26T21:17:36.627Z,7.90
2019-05-26T21:20:09.864Z,8.08
2019-05-26T21:22:38.380Z,8.53
2019-05-26T21:25:08.027Z,9.78
2019-05-26T21:27:39.479Z,5.75
2019-05-26T21:30:08.237Z,8.40
2019-05-26T21:32:36.698Z,6.10
2019-05-26T21:35:06.766Z,6.25
2019-05-26T21:37:35.312Z,9.05
2019-05-26T21:40:05.336Z,6.00
2019-05-26T21:42:33.771Z,5.80
2019-05-26T21:45:02.249Z,9.40
2019-05-26T21:47:30.687Z,7.72
2019-05-26T21:49:59.104Z,8.95
2019-05-26T21:52:27.582Z,8.78
2019-05-26T21:54:55.967Z,7.92
2019-05-26T21:57:24.400Z,13.55
2019-05-26T21:59:52.874Z,6.25
2019-05-26T22:02:21.364Z,10.63
2019-05-26T22:04:49.801Z,7.15
2019-05-26T22:07:18.220Z,7.08
2019-05-26T22:09:46.647Z,7.80
2019-05-26T22:12:15.095Z,7.28
2019-05-26T22:14:43.505Z,8.10
2019-05-26T22:17:11.918Z,7.60
2019-05-26T22:19:40.350Z,8.43
2019-05-26T22:22:08.761Z,5.75
2019-05-26T22:24:37.226Z,7.05
2019-05-26T22:27:05.709Z,6.00
2019-05-26T22:29:34.120Z,7.92
2019-05-26T22:32:02.605Z,7.25
2019-05-26T22:34:31.064Z,6.25
2019-05-26T22:36:59.460Z,7.47
2019-05-26T22:39:27.918Z,8.23
2019-05-26T22:41:56.351Z,10.75
2019-05-26T22:44:24.772Z,10.28
2019-05-26T22:46:53.260Z,7.80
2019-05-26T22:49:21.683Z,8.00
2019-05-26T22:51:50.101Z,10.53
2019-05-26T22:54:18.541Z,8.18
2019-05-26T22:56:46.937Z,10.28
2019-05-26T22:59:15.366Z,8.75
2019-05-26T23:01:43.796Z,10.48
2019-05-26T23:04:12.226Z,11.08
2019-05-26T23:06:40.654Z,12.93
2019-05-26T23:09:09.095Z,9.13
2019-05-26T23:11:37.515Z,8.93
2019-05-26T23:14:06.153Z,12.58
2019-05-26T23:16:34.665Z,10.82
2019-05-26T23:19:18.007Z,11.22
2019-05-26T23:21:33.275Z,11.20
2019-05-26T23:24:01.778Z,12.65
2019-05-26T23:26:30.219Z,10.18
2019-05-26T23:28:58.646Z,12.05
2019-05-26T23:31:27.069Z,9.68
2019-05-26T23:33:55.547Z,9.08
2019-05-26T23:36:23.997Z,8.38
2019-05-26T23:38:52.413Z,10.78
2019-05-26T23:41:20.857Z,9.45
2019-05-26T23:43:49.325Z,10.80
2019-05-26T23:46:17.727Z,12.07
2019-05-26T23:48:46.331Z,10.38
2019-05-26T23:51:14.762Z,12.58
2019-05-26T23:53:43.167Z,8.75
2019-05-26T23:56:11.728Z,9.78
2019-05-26T23:58:40.137Z,9.48
